Time;durP1;ratioP1;P1;durP2;ratioP2;P2;SDS_P1;SDS_P2;PMS_P1;PMS_P2;Temp;Humidity;BMP_temperature;BMP_pressure;BME280_temperature;BME280_humidity;BME280_pressure;Samples;Min_cycle;Max_cycle;Signal;HPM_P1;HPM_P2
2023/01/08 00:00:50;;;;;;;1.47;0.97;;;8.40;99.90;;;;;;5017506;28;20806;-92
2023/01/08 00:03:17;;;;;;;2.47;1.07;;;8.30;99.90;;;;;;5017854;28;20560;-91
2023/01/08 00:05:42;;;;;;;2.30;0.87;;;8.30;99.90;;;;;;5017308;28;20226;-93
2023/01/08 00:08:09;;;;;;;2.47;1.67;;;8.40;99.90;;;;;;5017426;28;20431;-94
2023/01/08 00:10:35;;;;;;;2.67;0.80;;;8.40;99.90;;;;;;5017586;28;20410;-91
2023/01/08 00:13:01;;;;;;;2.30;0.90;;;8.40;99.90;;;;;;5017372;28;20471;-93
2023/01/08 00:15:27;;;;;;;3.57;1.30;;;8.50;99.90;;;;;;5015653;28;20469;-91
2023/01/08 00:17:52;;;;;;;2.57;1.33;;;8.40;99.90;;;;;;5019452;28;20171;-85
2023/01/08 00:20:18;;;;;;;3.07;1.33;;;8.40;99.90;;;;;;5017139;28;20426;-92
2023/01/08 00:22:43;;;;;;;3.10;1.20;;;8.50;99.90;;;;;;5017964;28;20176;-92
2023/01/08 00:25:09;;;;;;;1.53;0.83;;;8.50;99.90;;;;;;5020030;28;20175;-91
2023/01/08 00:27:34;;;;;;;1.87;1.37;;;8.50;99.90;;;;;;5021279;28;20204;-91
2023/01/08 00:30:00;;;;;;;2.40;1.33;;;8.50;99.90;;;;;;5019610;28;20194;-89
2023/01/08 00:32:25;;;;;;;2.97;1.43;;;8.50;99.90;;;;;;5019351;28;20215;-93
2023/01/08 00:34:53;;;;;;;2.83;1.57;;;8.50;99.90;;;;;;5015898;28;20649;-86
2023/01/08 00:37:19;;;;;;;2.23;1.60;;;8.50;99.90;;;;;;5016418;28;20180;-88
2023/01/08 00:39:45;;;;;;;3.80;1.60;;;8.50;99.90;;;;;;5017512;28;20947;-94
2023/01/08 00:42:11;;;;;;;2.20;1.07;;;8.50;99.90;;;;;;5017522;28;20207;-90
2023/01/08 00:44:37;;;;;;;2.20;1.40;;;8.50;99.90;;;;;;5017431;28;20185;-84
2023/01/08 00:47:02;;;;;;;2.73;0.80;;;8.50;99.90;;;;;;5017227;28;20516;-92
2023/01/08 00:49:28;;;;;;;1.60;0.37;;;8.40;99.90;;;;;;5017556;28;20232;-90
2023/01/08 00:51:53;;;;;;;1.90;0.93;;;8.50;99.90;;;;;;5016052;28;20224;-92
2023/01/08 00:54:19;;;;;;;2.27;1.37;;;8.50;99.90;;;;;;5016490;28;20178;-89
2023/01/08 00:56:44;;;;;;;1.70;0.57;;;8.50;99.90;;;;;;5017529;28;20184;-90
2023/01/08 00:59:10;;;;;;;1.77;1.20;;;8.40;99.90;;;;;;5016482;28;20180;-93
2023/01/08 01:01:36;;;;;;;1.00;0.63;;;8.40;99.90;;;;;;5016416;28;20181;-91
2023/01/08 01:04:01;;;;;;;2.83;1.70;;;8.30;99.90;;;;;;5016367;28;20609;-94
2023/01/08 01:06:27;;;;;;;1.50;0.87;;;8.40;99.90;;;;;;5015600;28;20185;-89
2023/01/08 01:08:53;;;;;;;2.70;1.17;;;8.40;99.90;;;;;;5015572;28;20428;-90
2023/01/08 01:11:24;;;;;;;2.10;1.53;;;8.30;99.90;;;;;;5016671;28;20195;-92
2023/01/08 01:13:50;;;;;;;2.00;1.23;;;8.50;99.90;;;;;;5024224;28;20215;-86
2023/01/08 01:16:18;;;;;;;1.77;0.80;;;8.50;99.90;;;;;;5021601;28;20469;-92
2023/01/08 01:18:46;;;;;;;1.13;0.40;;;8.50;99.90;;;;;;5016430;28;20791;-87
2023/01/08 01:21:22;;;;;;;1.03;0.93;;;8.50;99.90;;;;;;5015163;28;20432;-90
2023/01/08 01:23:48;;;;;;;1.37;0.87;;;8.60;99.90;;;;;;5014921;28;20484;-92
2023/01/08 01:26:17;;;;;;;2.63;1.20;;;8.50;99.90;;;;;;5014385;28;20824;-91
2023/01/08 01:28:42;;;;;;;1.47;0.77;;;8.60;99.90;;;;;;5015112;28;20179;-92
2023/01/08 01:31:12;;;;;;;3.20;0.97;;;8.60;99.90;;;;;;5016027;28;20415;-91
2023/01/08 01:33:38;;;;;;;2.10;0.97;;;8.60;99.90;;;;;;5015326;28;20481;-89
2023/01/08 01:36:04;;;;;;;2.10;1.30;;;8.60;99.90;;;;;;5017672;28;20470;-94
2023/01/08 01:38:32;;;;;;;2.23;1.03;;;8.60;99.90;;;;;;5017431;28;20428;-93
2023/01/08 01:40:58;;;;;;;1.70;1.60;;;8.70;99.90;;;;;;5014871;28;20420;-91
2023/01/08 01:43:42;;;;;;;3.07;1.57;;;8.60;99.90;;;;;;5014796;28;20753;-92
2023/01/08 01:46:34;;;;;;;2.97;1.70;;;8.60;99.90;;;;;;5014833;28;20426;-92
2023/01/08 01:49:05;;;;;;;2.60;0.70;;;8.70;99.90;;;;;;5014637;28;20427;-94
2023/01/08 01:51:33;;;;;;;3.83;1.07;;;8.60;99.90;;;;;;5014229;28;20759;-90
2023/01/08 01:54:02;;;;;;;2.10;1.23;;;8.60;99.90;;;;;;5014525;28;20535;-94
2023/01/08 01:56:29;;;;;;;2.03;0.93;;;8.60;99.90;;;;;;5014530;28;20418;-91
2023/01/08 01:58:55;;;;;;;4.63;1.20;;;8.60;99.90;;;;;;5014388;28;20428;-93
2023/01/08 02:01:25;;;;;;;1.57;0.60;;;8.60;99.90;;;;;;5014491;28;20977;-94
2023/01/08 02:03:58;;;;;;;1.70;1.10;;;8.70;99.90;;;;;;5014174;28;20415;-95
2023/01/08 02:06:37;;;;;;;2.00;1.00;;;8.70;99.90;;;;;;5013705;28;20420;-94
2023/01/08 02:09:24;;;;;;;2.70;1.27;;;8.70;99.90;;;;;;5014397;28;20438;-93
2023/01/08 02:12:15;;;;;;;2.60;1.30;;;8.60;99.90;;;;;;5014161;28;20914;-91
2023/01/08 02:14:53;;;;;;;2.70;1.10;;;8.70;99.90;;;;;;5014119;28;20433;-88
2023/01/08 02:17:33;;;;;;;2.30;0.83;;;8.70;99.90;;;;;;5014074;28;20447;-90
2023/01/08 02:20:29;;;;;;;2.13;0.83;;;8.70;99.90;;;;;;5009488;28;20422;-91
2023/01/08 02:23:07;;;;;;;2.30;0.47;;;8.80;99.90;;;;;;5010698;28;20423;-91
2023/01/08 02:25:51;;;;;;;2.10;1.03;;;8.80;99.90;;;;;;5014020;28;20437;-89
2023/01/08 02:28:16;;;;;;;2.10;0.73;;;8.80;99.90;;;;;;5013817;28;20426;-92
2023/01/08 02:30:44;;;;;;;1.83;0.80;;;8.80;99.90;;;;;;5013740;28;20989;-92
2023/01/08 02:33:10;;;;;;;2.50;1.03;;;8.80;99.90;;;;;;5013747;28;20212;-91
2023/01/08 02:35:40;;;;;;;1.60;1.13;;;8.80;99.90;;;;;;5014425;28;20407;-90
2023/01/08 02:38:11;;;;;;;1.77;0.60;;;8.80;99.90;;;;;;5013832;28;20421;-90
2023/01/08 02:40:58;;;;;;;3.63;1.00;;;8.80;99.90;;;;;;5013763;28;20411;-92
2023/01/08 02:43:35;;;;;;;2.13;1.00;;;8.80;99.90;;;;;;5022728;28;20445;-91
2023/01/08 02:46:01;;;;;;;1.37;0.80;;;8.80;99.90;;;;;;5013625;28;20411;-91
2023/01/08 02:48:32;;;;;;;2.33;1.00;;;8.80;99.90;;;;;;5014616;28;20406;-88
2023/01/08 02:51:39;;;;;;;2.93;0.70;;;8.90;99.90;;;;;;5013325;28;20482;-91
2023/01/08 02:54:10;;;;;;;2.10;1.03;;;8.80;99.90;;;;;;5013574;28;20539;-90
2023/01/08 02:56:39;;;;;;;3.40;1.63;;;8.80;99.90;;;;;;5014635;28;20432;-92
2023/01/08 02:59:06;;;;;;;1.20;0.70;;;8.80;99.90;;;;;;5019384;28;20421;-94
2023/01/08 03:01:33;;;;;;;1.57;0.57;;;8.80;99.90;;;;;;5018945;28;20414;-90
2023/01/08 03:04:05;;;;;;;3.00;1.33;;;8.80;99.90;;;;;;5013445;28;20513;-94
2023/01/08 03:06:31;;;;;;;1.50;0.97;;;8.80;99.90;;;;;;5013370;28;20407;-93
2023/01/08 03:08:58;;;;;;;1.57;0.80;;;8.70;99.90;;;;;;5014664;28;20414;-90
2023/01/08 03:11:30;;;;;;;1.73;0.87;;;8.80;99.90;;;;;;5014747;28;20743;-93
2023/01/08 03:14:11;;;;;;;3.37;1.17;;;8.80;99.90;;;;;;5014361;28;20461;-91
2023/01/08 03:16:49;;;;;;;2.00;0.60;;;8.80;99.90;;;;;;5014351;28;20562;-93
2023/01/08 03:19:36;;;;;;;2.00;1.20;;;8.80;99.90;;;;;;5013084;28;20864;-92
2023/01/08 03:22:10;;;;;;;1.60;1.13;;;8.80;99.90;;;;;;5013025;28;20866;-93
2023/01/08 03:24:38;;;;;;;1.83;0.47;;;8.90;99.90;;;;;;5013261;28;20479;-91
2023/01/08 03:27:09;;;;;;;2.47;0.77;;;8.90;99.90;;;;;;5013095;28;20435;-89
2023/01/08 03:29:52;;;;;;;1.87;1.07;;;8.80;99.90;;;;;;5014481;28;20417;-91
2023/01/08 03:32:20;;;;;;;1.80;1.13;;;8.80;99.90;;;;;;5013281;28;20451;-93
2023/01/08 03:34:49;;;;;;;2.20;1.17;;;8.80;99.90;;;;;;5013990;28;20497;-92
2023/01/08 03:37:17;;;;;;;1.30;0.77;;;8.80;99.90;;;;;;5013100;28;20428;-92
2023/01/08 03:39:48;;;;;;;1.83;0.50;;;8.80;99.90;;;;;;5013202;28;20432;-93
2023/01/08 03:42:16;;;;;;;1.97;0.90;;;8.90;99.90;;;;;;5013202;28;20408;-93
2023/01/08 03:44:42;;;;;;;3.00;0.77;;;8.80;99.90;;;;;;5012857;28;20420;-93
2023/01/08 03:47:09;;;;;;;2.10;1.00;;;8.80;99.90;;;;;;5012126;28;20986;-89
2023/01/08 03:49:36;;;;;;;1.70;0.70;;;8.80;99.90;;;;;;5012508;28;20180;-91
2023/01/08 03:52:02;;;;;;;1.80;0.97;;;8.80;99.90;;;;;;5015458;28;20466;-90
2023/01/08 03:54:31;;;;;;;1.93;0.83;;;8.80;99.90;;;;;;5016268;28;20433;-92
2023/01/08 03:56:57;;;;;;;2.10;1.17;;;8.80;99.90;;;;;;5017560;28;20175;-92
2023/01/08 03:59:22;;;;;;;2.33;1.17;;;8.80;99.90;;;;;;5016270;28;20451;-93
2023/01/08 04:01:48;;;;;;;2.20;1.00;;;8.80;99.90;;;;;;5016292;28;20945;-92
2023/01/08 04:04:13;;;;;;;1.63;0.40;;;8.90;99.90;;;;;;5015732;28;20171;-93
2023/01/08 04:06:39;;;;;;;6.73;1.13;;;8.90;99.90;;;;;;5016850;28;20222;-93
2023/01/08 04:09:05;;;;;;;3.07;0.57;;;8.90;99.90;;;;;;5021406;28;20187;-91
2023/01/08 04:11:33;;;;;;;2.13;0.57;;;8.90;99.90;;;;;;5024275;28;20638;-93
2023/01/08 04:13:59;;;;;;;1.83;0.77;;;8.80;99.90;;;;;;5016852;28;20223;-91
2023/01/08 04:16:24;;;;;;;2.03;0.70;;;8.90;99.90;;;;;;5022265;28;20441;-92
2023/01/08 04:18:50;;;;;;;1.10;0.50;;;8.90;99.90;;;;;;5016620;28;20619;-94
2023/01/08 04:21:15;;;;;;;1.60;0.60;;;8.90;99.90;;;;;;5016240;28;20177;-92
2023/01/08 04:23:41;;;;;;;2.23;0.90;;;9.00;99.90;;;;;;5016164;28;20212;-94
2023/01/08 04:26:08;;;;;;;2.80;1.10;;;9.00;99.90;;;;;;5015745;28;20274;-93
2023/01/08 04:28:34;;;;;;;2.87;1.03;;;9.00;99.90;;;;;;5015736;28;20179;-95
2023/01/08 04:31:03;;;;;;;1.90;0.80;;;9.10;99.90;;;;;;5015808;28;20426;-92
2023/01/08 04:33:29;;;;;;;2.10;0.93;;;9.10;99.90;;;;;;5015658;28;20505;-93
2023/01/08 04:35:54;;;;;;;1.30;0.60;;;9.10;99.90;;;;;;5015397;28;20421;-95
2023/01/08 04:38:20;;;;;;;2.13;0.83;;;9.20;99.90;;;;;;5017064;28;20170;-93
2023/01/08 04:40:45;;;;;;;2.60;0.63;;;9.20;99.90;;;;;;5016923;28;20168;-93
2023/01/08 04:43:10;;;;;;;2.13;1.30;;;9.20;99.90;;;;;;5015822;28;20258;-92
2023/01/08 04:45:36;;;;;;;2.80;0.97;;;9.30;99.90;;;;;;5015837;28;20180;-93
2023/01/08 04:48:01;;;;;;;1.60;0.40;;;9.30;99.90;;;;;;5015639;28;20589;-92
2023/01/08 04:50:30;;;;;;;3.70;0.73;;;9.30;99.90;;;;;;5015449;28;20183;-93
2023/01/08 04:52:58;;;;;;;1.83;0.80;;;9.40;99.90;;;;;;5015600;28;20217;-94
2023/01/08 04:55:23;;;;;;;2.20;0.40;;;9.40;99.90;;;;;;5016438;28;20472;-92
2023/01/08 04:57:49;;;;;;;1.23;0.70;;;9.40;99.90;;;;;;5016880;28;20413;-91
2023/01/08 05:00:17;;;;;;;1.73;0.67;;;9.40;99.90;;;;;;5015444;28;20205;-92
2023/01/08 05:02:43;;;;;;;2.03;1.00;;;9.30;99.90;;;;;;5014200;28;20175;-94
2023/01/08 05:05:08;;;;;;;5.33;1.17;;;9.20;99.90;;;;;;5014978;28;20432;-95
2023/01/08 05:07:34;;;;;;;2.40;0.90;;;9.20;99.90;;;;;;5015398;28;20633;-93
2023/01/08 05:09:59;;;;;;;1.50;0.77;;;9.20;99.90;;;;;;5015744;28;20179;-94
2023/01/08 05:12:25;;;;;;;2.23;1.23;;;9.10;99.90;;;;;;5014985;28;20663;-93
2023/01/08 05:14:50;;;;;;;1.97;1.50;;;9.00;99.90;;;;;;5015289;28;20199;-93
2023/01/08 05:17:16;;;;;;;1.90;1.20;;;9.10;99.90;;;;;;5015207;28;20274;-92
2023/01/08 05:19:41;;;;;;;3.23;0.90;;;9.10;99.90;;;;;;5014838;28;20184;-93
2023/01/08 05:22:07;;;;;;;1.57;0.80;;;9.00;99.90;;;;;;5015225;28;20226;-94
2023/01/08 05:24:32;;;;;;;2.50;0.83;;;9.00;99.90;;;;;;5015511;28;20534;-93
2023/01/08 05:26:58;;;;;;;2.80;1.13;;;9.00;99.90;;;;;;5015451;28;20175;-93
2023/01/08 05:29:23;;;;;;;3.30;0.97;;;9.10;99.90;;;;;;5015024;28;20240;-94
2023/01/08 05:31:48;;;;;;;2.13;1.40;;;9.00;99.90;;;;;;5015537;28;20628;-93
2023/01/08 05:34:17;;;;;;;2.13;1.07;;;9.00;99.90;;;;;;5015210;28;20208;-94
2023/01/08 05:36:42;;;;;;;1.43;0.70;;;9.10;99.90;;;;;;5014647;28;20262;-93
2023/01/08 05:39:08;;;;;;;1.90;1.07;;;8.90;99.90;;;;;;5029733;28;20418;-93
2023/01/08 05:41:33;;;;;;;2.97;1.23;;;8.90;99.90;;;;;;5015101;28;20169;-89
2023/01/08 05:44:02;;;;;;;3.27;0.80;;;8.90;99.90;;;;;;5015262;28;20561;-91
2023/01/08 05:46:28;;;;;;;3.37;0.53;;;8.80;99.90;;;;;;5014735;28;20177;-94
2023/01/08 05:48:53;;;;;;;1.57;0.53;;;8.90;99.90;;;;;;5014726;28;20419;-94
2023/01/08 05:51:19;;;;;;;1.53;0.93;;;8.90;99.90;;;;;;5014993;28;20178;-94
2023/01/08 05:53:44;;;;;;;2.10;0.93;;;8.90;99.90;;;;;;5016533;28;20211;-94
2023/01/08 05:56:10;;;;;;;2.43;1.17;;;8.80;99.90;;;;;;5016430;28;20652;-94
2023/01/08 05:58:36;;;;;;;1.60;0.70;;;8.80;99.90;;;;;;5019360;28;20291;-94
2023/01/08 06:01:08;;;;;;;2.07;1.17;;;8.80;99.90;;;;;;5017272;28;20459;-94
2023/01/08 06:03:33;;;;;;;2.40;1.30;;;8.80;99.90;;;;;;5016718;28;20262;-93
2023/01/08 06:06:04;;;;;;;2.10;1.03;;;8.80;99.90;;;;;;5017024;28;20449;-94
2023/01/08 06:08:33;;;;;;;1.53;1.40;;;8.80;99.90;;;;;;5019945;28;20180;-95
2023/01/08 06:11:00;;;;;;;1.47;0.87;;;8.80;99.90;;;;;;5020068;28;20429;-94
2023/01/08 06:13:32;;;;;;;1.90;0.77;;;8.90;99.90;;;;;;5020408;28;20534;-94
2023/01/08 06:16:01;;;;;;;1.93;0.60;;;8.80;99.90;;;;;;5016546;28;20466;-93
2023/01/08 06:18:28;;;;;;;1.30;0.67;;;8.70;99.90;;;;;;5015125;28;20439;-94
2023/01/08 06:20:54;;;;;;;2.90;1.37;;;8.70;99.90;;;;;;5013498;28;20943;-92
2023/01/08 06:23:19;;;;;;;2.87;0.83;;;8.70;99.90;;;;;;5013805;28;20546;-92
2023/01/08 06:25:52;;;;;;;3.07;1.10;;;8.70;99.90;;;;;;5013523;28;20178;-92
2023/01/08 06:28:18;;;;;;;2.93;1.27;;;8.60;99.90;;;;;;5014067;28;20174;-90
2023/01/08 06:30:43;;;;;;;3.00;1.53;;;8.60;99.90;;;;;;5013851;28;20495;-91
2023/01/08 06:33:09;;;;;;;2.57;1.40;;;8.70;99.90;;;;;;5013804;28;20768;-89
2023/01/08 06:35:34;;;;;;;2.20;1.30;;;8.70;99.90;;;;;;5013335;28;20179;-93
2023/01/08 06:38:00;;;;;;;1.27;0.73;;;8.70;99.90;;;;;;5013811;28;20544;-91
2023/01/08 06:40:25;;;;;;;1.50;0.73;;;8.70;99.90;;;;;;5013844;28;20179;-93
2023/01/08 06:42:51;;;;;;;3.80;1.03;;;8.70;99.90;;;;;;5013615;28;20172;-92
2023/01/08 06:45:16;;;;;;;3.43;1.17;;;8.60;99.90;;;;;;5014858;28;20184;-93
2023/01/08 06:47:42;;;;;;;2.73;1.30;;;8.60;99.90;;;;;;5013721;28;20173;-92
2023/01/08 06:50:08;;;;;;;2.53;1.43;;;8.60;99.90;;;;;;5014192;28;20170;-92
2023/01/08 06:52:34;;;;;;;1.93;0.63;;;8.60;99.90;;;;;;5013514;28;20207;-92
2023/01/08 06:55:03;;;;;;;1.63;0.77;;;8.70;99.90;;;;;;5013858;28;20420;-93
2023/01/08 06:57:29;;;;;;;2.83;1.20;;;8.70;99.90;;;;;;5013732;28;20214;-93
2023/01/08 06:59:55;;;;;;;3.40;1.60;;;8.70;99.90;;;;;;5013515;28;20418;-92
2023/01/08 07:02:20;;;;;;;2.87;0.90;;;8.70;99.90;;;;;;5013563;28;20418;-92
2023/01/08 07:04:46;;;;;;;3.03;1.03;;;8.70;99.90;;;;;;5020041;28;20164;-89
2023/01/08 07:07:15;;;;;;;2.30;0.90;;;8.70;99.90;;;;;;5026566;28;20265;-94
2023/01/08 07:09:41;;;;;;;2.97;0.80;;;8.60;99.90;;;;;;5024273;28;20188;-93
2023/01/08 07:12:14;;;;;;;2.80;1.20;;;8.70;99.90;;;;;;5023325;28;20498;-91
2023/01/08 07:14:40;;;;;;;2.53;1.30;;;8.70;99.90;;;;;;5024244;28;20468;-93
2023/01/08 07:17:06;;;;;;;3.00;1.50;;;8.60;99.90;;;;;;5023686;28;20427;-92
2023/01/08 07:19:32;;;;;;;2.20;1.27;;;8.60;99.90;;;;;;5023894;28;20429;-94
2023/01/08 07:21:57;;;;;;;6.17;1.87;;;8.50;99.90;;;;;;5011717;28;20507;-92
2023/01/08 07:24:23;;;;;;;3.20;1.23;;;8.50;99.90;;;;;;5024180;28;20425;-87
2023/01/08 07:26:48;;;;;;;2.23;1.20;;;8.50;99.90;;;;;;5024620;28;20598;-93
2023/01/08 07:29:14;;;;;;;1.97;1.40;;;8.50;99.90;;;;;;5022359;28;20229;-91
2023/01/08 07:31:39;;;;;;;2.87;0.93;;;8.50;99.90;;;;;;5025191;28;20172;-93
2023/01/08 07:34:05;;;;;;;1.50;1.30;;;8.60;99.90;;;;;;5025966;28;20212;-91
2023/01/08 07:36:30;;;;;;;1.77;1.10;;;8.60;99.90;;;;;;5027441;28;20176;-92
2023/01/08 07:38:56;;;;;;;2.30;0.70;;;8.60;99.90;;;;;;5026814;28;20709;-90
2023/01/08 07:41:21;;;;;;;3.40;1.10;;;8.60;99.90;;;;;;5023117;28;20180;-86
2023/01/08 07:43:49;;;;;;;1.53;0.90;;;8.60;99.90;;;;;;5023219;28;20225;-91
2023/01/08 07:46:15;;;;;;;2.00;0.60;;;8.70;99.90;;;;;;4990597;28;20182;-92
2023/01/08 07:48:40;;;;;;;1.80;1.37;;;8.60;99.90;;;;;;5004809;28;20452;-87
2023/01/08 07:51:07;;;;;;;1.53;0.77;;;8.80;99.90;;;;;;5024517;28;20427;-90
2023/01/08 07:53:34;;;;;;;1.70;0.80;;;8.70;99.90;;;;;;5021308;28;20216;-93
2023/01/08 07:56:01;;;;;;;1.77;0.97;;;8.70;99.90;;;;;;5018781;28;20412;-94
2023/01/08 07:58:26;;;;;;;2.73;1.03;;;8.80;99.90;;;;;;5017090;28;20421;-92
2023/01/08 08:00:52;;;;;;;2.47;1.50;;;8.70;99.90;;;;;;5016595;28;20748;-93
2023/01/08 08:03:18;;;;;;;11.83;6.80;;;8.80;99.90;;;;;;5017624;28;20949;-89
2023/01/08 08:05:43;;;;;;;1.93;0.60;;;8.80;99.90;;;;;;5017385;28;20202;-91
2023/01/08 08:08:10;;;;;;;3.40;1.10;;;8.80;99.90;;;;;;5017503;28;20230;-92
2023/01/08 08:10:36;;;;;;;3.20;0.90;;;8.80;99.90;;;;;;5016480;28;20173;-93
2023/01/08 08:13:01;;;;;;;3.00;1.50;;;8.80;99.90;;;;;;5018368;28;20870;-94
2023/01/08 08:15:27;;;;;;;2.60;0.90;;;8.90;99.90;;;;;;5018766;28;20558;-95
2023/01/08 08:17:52;;;;;;;3.33;0.93;;;8.90;99.90;;;;;;5017869;28;20178;-92
2023/01/08 08:20:18;;;;;;;1.90;1.53;;;8.90;99.90;;;;;;5017897;28;20248;-94
2023/01/08 08:22:43;;;;;;;2.60;1.13;;;8.90;99.90;;;;;;5019353;28;20636;-95
2023/01/08 08:25:09;;;;;;;1.80;1.13;;;8.80;99.90;;;;;;5019377;28;20180;-95
2023/01/08 08:27:35;;;;;;;1.40;0.43;;;8.80;99.90;;;;;;5017888;28;20264;-95
2023/01/08 08:30:00;;;;;;;3.80;1.13;;;8.80;99.90;;;;;;5019285;28;20513;-95
2023/01/08 08:32:26;;;;;;;4.00;1.43;;;9.00;99.90;;;;;;5017995;28;20209;-96
2023/01/08 08:34:51;;;;;;;2.70;1.40;;;8.80;99.90;;;;;;5029665;28;20177;-86
2023/01/08 08:37:17;;;;;;;3.13;1.37;;;8.80;99.90;;;;;;5018686;28;20203;-96
2023/01/08 08:39:42;;;;;;;2.20;0.83;;;8.80;99.90;;;;;;5017655;28;20184;-95
2023/01/08 08:42:08;;;;;;;1.60;0.93;;;8.80;99.90;;;;;;5017952;28;20545;-96
2023/01/08 08:44:34;;;;;;;3.60;2.10;;;;;;;;;;5020028;28;20208;-96
2023/01/08 08:47:00;;;;;;;3.83;2.30;;;9.00;99.90;;;;;;5021293;28;20178;-94
2023/01/08 08:49:27;;;;;;;1.70;0.87;;;8.90;99.90;;;;;;4986815;28;20434;-95
2023/01/08 08:51:53;;;;;;;3.80;1.47;;;8.90;99.90;;;;;;5018416;28;20435;-95
2023/01/08 08:54:18;;;;;;;2.67;0.77;;;8.80;99.90;;;;;;5018754;28;20428;-96
2023/01/08 08:56:46;;;;;;;2.77;1.37;;;8.90;99.90;;;;;;5000610;28;20425;-91
2023/01/08 08:59:12;;;;;;;2.10;1.10;;;8.90;99.90;;;;;;5015572;28;20176;-93
2023/01/08 09:01:37;;;;;;;2.33;1.10;;;8.90;99.90;;;;;;5015815;28;20989;-91
2023/01/08 09:04:03;;;;;;;6.73;1.60;;;8.90;99.90;;;;;;5014935;28;20172;-92
2023/01/08 09:06:28;;;;;;;2.60;1.10;;;9.00;99.90;;;;;;5015587;28;20171;-94
2023/01/08 09:08:54;;;;;;;3.20;0.90;;;9.00;99.90;;;;;;5016271;28;20176;-94
2023/01/08 09:11:20;;;;;;;6.10;1.60;;;9.00;99.90;;;;;;5016620;28;20220;-93
2023/01/08 09:13:48;;;;;;;3.90;1.07;;;9.00;99.90;;;;;;5015454;28;20202;-96
2023/01/08 09:16:17;;;;;;;1.50;1.20;;;9.10;99.90;;;;;;5018035;28;20970;-95
2023/01/08 09:18:44;;;;;;;2.70;1.37;;;9.10;99.90;;;;;;5017874;28;20423;-94
2023/01/08 09:21:09;;;;;;;7.40;1.50;;;9.00;99.90;;;;;;5002231;28;20430;-96
2023/01/08 09:23:49;;;;;;;3.60;1.63;;;9.00;99.90;;;;;;5003226;28;20446;-95
2023/01/08 09:26:16;;;;;;;2.73;1.27;;;9.10;99.90;;;;;;4987741;28;20175;-93
2023/01/08 09:28:42;;;;;;;2.20;0.93;;;9.20;99.90;;;;;;5023752;28;20461;-93
2023/01/08 09:31:07;;;;;;;2.67;1.40;;;9.10;99.90;;;;;;5019762;28;20765;-92
2023/01/08 09:33:33;;;;;;;2.23;1.20;;;9.10;99.90;;;;;;5018359;28;20257;-94
2023/01/08 09:36:01;;;;;;;2.20;0.87;;;9.10;99.90;;;;;;5020778;28;20179;-93
2023/01/08 09:38:45;;;;;;;1.70;0.93;;;9.20;99.90;;;;;;5020248;28;20223;-94
2023/01/08 09:41:33;;;;;;;3.57;1.20;;;9.20;99.90;;;;;;5025076;28;20415;-96
2023/01/08 09:44:01;;;;;;;3.50;1.33;;;9.30;99.90;;;;;;5019646;28;20785;-94
2023/01/08 09:46:28;;;;;;;2.20;1.53;;;9.40;99.90;;;;;;5017038;28;20426;-94
2023/01/08 09:48:59;;;;;;;2.90;0.90;;;9.30;99.90;;;;;;5018290;28;20475;-95
2023/01/08 09:51:33;;;;;;;2.50;1.50;;;9.30;99.90;;;;;;5018691;28;20427;-96
2023/01/08 09:53:59;;;;;;;2.27;1.73;;;9.40;99.90;;;;;;5023825;28;20500;-93
2023/01/08 09:56:25;;;;;;;2.43;1.40;;;9.30;99.90;;;;;;5023308;28;20431;-94
2023/01/08 09:58:53;;;;;;;3.27;1.13;;;;;;;;;;5022391;28;20186;-88
2023/01/08 10:01:22;;;;;;;3.37;1.37;;;;;;;;;;5034183;28;20174;-86
2023/01/08 10:04:03;;;;;;;2.37;0.70;;;9.40;99.90;;;;;;5016281;28;20436;-90
2023/01/08 10:06:31;;;;;;;2.80;0.73;;;;;;;;;;5035295;28;20443;-89
2023/01/08 10:08:58;;;;;;;1.20;0.60;;;;;;;;;;5030709;28;20435;-90
2023/01/08 10:11:35;;;;;;;1.87;1.10;;;9.30;99.90;;;;;;5028549;28;20462;-91
2023/01/08 10:14:01;;;;;;;2.50;1.50;;;9.40;99.90;;;;;;5019939;28;20469;-93
2023/01/08 10:16:26;;;;;;;1.93;0.83;;;9.50;99.90;;;;;;5014339;28;20462;-91
2023/01/08 10:18:52;;;;;;;2.03;0.87;;;9.30;99.90;;;;;;5014016;28;20184;-90
2023/01/08 10:21:18;;;;;;;3.00;0.77;;;;;;;;;;5015448;28;20171;-90
2023/01/08 10:23:49;;;;;;;2.47;0.83;;;;;;;;;;5015418;28;20207;-91
2023/01/08 10:26:25;;;;;;;2.40;1.17;;;;;;;;;;5020459;28;20450;-89
2023/01/08 10:28:52;;;;;;;1.60;0.63;;;;;;;;;;5014378;28;20413;-93
2023/01/08 10:31:18;;;;;;;3.83;1.03;;;;;;;;;;5014193;28;20414;-92
2023/01/08 10:33:45;;;;;;;2.53;1.30;;;;;;;;;;5016158;28;20518;-94
2023/01/08 10:36:15;;;;;;;3.50;1.57;;;;;;;;;;5014377;28;20473;-92
2023/01/08 10:39:03;;;;;;;2.93;0.90;;;;;;;;;;5014162;28;20454;-92
2023/01/08 10:42:10;;;;;;;1.83;0.73;;;;;;;;;;5015049;28;20418;-93
2023/01/08 10:44:53;;;;;;;2.67;0.87;;;;;;;;;;5018490;28;20420;-94
2023/01/08 10:47:20;;;;;;;1.67;0.90;;;;;;;;;;5025651;28;20428;-89
2023/01/08 10:49:50;;;;;;;1.27;0.67;;;;;;;;;;5035096;28;20432;-90
2023/01/08 10:52:35;;;;;;;2.50;1.20;;;;;;;;;;5032202;28;20395;-90
2023/01/08 10:55:12;;;;;;;1.83;1.07;;;;;;;;;;5013978;28;20452;-94
2023/01/08 10:57:40;;;;;;;4.03;1.17;;;;;;;;;;5015283;28;20406;-93
2023/01/08 11:00:07;;;;;;;3.33;1.33;;;;;;;;;;5015066;28;20420;-94
2023/01/08 11:02:35;;;;;;;1.50;0.70;;;;;;;;;;5014033;28;20410;-92
2023/01/08 11:05:03;;;;;;;2.23;0.70;;;;;;;;;;5013567;28;20494;-94
2023/01/08 11:07:30;;;;;;;3.40;1.83;;;;;;;;;;5014135;28;20476;-94
2023/01/08 11:09:57;;;;;;;5.60;3.10;;;;;;;;;;5014000;28;20916;-94
2023/01/08 11:12:29;;;;;;;3.90;1.50;;;;;;;;;;5014213;28;20910;-95
2023/01/08 11:14:55;;;;;;;2.07;0.93;;;;;;;;;;5013940;28;20531;-93
2023/01/08 11:17:25;;;;;;;3.90;1.57;;;;;;;;;;5015120;28;20439;-95
2023/01/08 11:19:52;;;;;;;3.73;1.27;;;;;;;;;;5013795;28;20419;-95
2023/01/08 11:22:22;;;;;;;2.47;1.17;;;;;;;;;;5014573;28;20466;-95
2023/01/08 11:24:53;;;;;;;2.40;1.37;;;;;;;;;;5014934;28;21004;-95
2023/01/08 11:27:42;;;;;;;3.83;1.17;;;;;;;;;;5013989;28;20448;-96
2023/01/08 11:30:22;;;;;;;3.33;1.30;;;;;;;;;;5022046;28;20405;-84
2023/01/08 11:32:58;;;;;;;2.37;1.50;;;;;;;;;;5018179;28;20498;-95
2023/01/08 11:35:29;;;;;;;2.90;1.33;;;;;;;;;;5014045;28;20424;-96
2023/01/08 11:37:58;;;;;;;3.90;2.10;;;;;;;;;;5014166;28;20977;-93
2023/01/08 11:40:24;;;;;;;2.90;0.80;;;;;;;;;;5015991;28;20504;-95
2023/01/08 11:43:10;;;;;;;3.00;1.33;;;;;;;;;;5021804;28;20450;-94
2023/01/08 11:46:08;;;;;;;3.83;1.07;;;10.10;99.90;;;;;;5020409;28;20414;-93
2023/01/08 11:48:43;;;;;;;2.60;1.90;;;;;;;;;;5015159;28;20790;-93
2023/01/08 11:51:51;;;;;;;3.50;0.80;;;12.50;99.90;;;;;;5013387;28;20833;-95
2023/01/08 11:54:25;;;;;;;2.10;0.90;;;11.80;99.90;;;;;;5013111;28;20493;-94
2023/01/08 11:57:16;;;;;;;2.07;0.67;;;11.10;99.90;;;;;;5013455;28;20414;-93
2023/01/08 12:00:09;;;;;;;1.43;0.80;;;10.60;99.90;;;;;;5014560;28;20437;-94
2023/01/08 12:02:52;;;;;;;1.27;0.37;;;;;;;;;;5013473;28;20442;-94
2023/01/08 12:05:18;;;;;;;1.90;0.73;;;;;;;;;;5013083;28;20488;-94
2023/01/08 12:07:48;;;;;;;2.17;0.73;;;;;;;;;;5013161;28;20419;-94
2023/01/08 12:10:33;;;;;;;0.97;0.20;;;;;;;;;;5013613;28;20561;-93
2023/01/08 12:13:07;;;;;;;1.70;0.50;;;;;;;;;;5016432;28;21273;-93
2023/01/08 12:15:58;;;;;;;1.53;0.60;;;14.60;1.00;;;;;;5017014;28;20470;-90
2023/01/08 12:19:18;;;;;;;1.30;0.73;;;14.80;54.00;;;;;;5016139;28;20488;-95
2023/01/08 12:22:05;;;;;;;1.33;0.40;;;15.00;1.00;;;;;;4957612;29;20409;-95
2023/01/08 12:24:56;;;;;;;1.73;0.33;;;15.50;1.00;;;;;;5012224;28;20462;-93
2023/01/08 12:27:42;;;;;;;1.53;0.50;;;15.50;99.90;;;;;;5016509;28;20497;-95
2023/01/08 12:30:51;;;;;;;1.00;0.27;;;15.30;1.00;;;;;;5016357;28;20433;-94
2023/01/08 12:33:39;;;;;;;1.77;0.73;;;15.10;99.90;;;;;;5016873;28;20488;-94
2023/01/08 12:36:08;;;;;;;2.37;0.40;;;15.40;1.00;;;;;;5015805;28;20418;-95
2023/01/08 12:38:43;;;;;;;2.10;0.30;;;14.40;99.90;;;;;;5016017;28;20504;-95
2023/01/08 12:41:15;;;;;;;1.00;0.50;;;13.10;99.90;;;;;;5016087;28;20425;-96
2023/01/08 12:44:04;;;;;;;1.67;0.30;;;12.70;99.90;;;;;;5016332;28;20429;-95
2023/01/08 12:46:33;;;;;;;1.17;0.50;;;12.50;1.00;;;;;;5016232;28;20936;-94
2023/01/08 12:48:59;;;;;;;0.50;0.20;;;11.80;1.00;;;;;;5016830;28;20507;-95
2023/01/08 12:51:40;;;;;;;0.60;0.23;;;11.70;70.00;;;;;;5015887;28;20425;-96
2023/01/08 12:54:09;;;;;;;0.90;0.50;;;11.90;9.20;;;;;;5015864;28;20480;-95
2023/01/08 12:57:06;;;;;;;2.40;0.30;;;12.10;1.00;;;;;;5015938;28;20512;-94
2023/01/08 12:59:47;;;;;;;1.37;0.30;;;12.00;1.00;;;;;;5024791;28;20924;-95
2023/01/08 13:02:31;;;;;;;0.60;0.20;;;11.80;1.00;;;;;;5015484;28;20438;-93
2023/01/08 13:04:57;;;;;;;1.03;0.30;;;11.60;1.00;;;;;;5015231;28;20508;-94
2023/01/08 13:07:29;;;;;;;0.73;0.23;;;11.70;1.00;;;;;;5015296;28;20425;-94
2023/01/08 13:10:17;;;;;;;0.53;0.33;;;11.70;1.00;;;;;;5015690;28;20182;-95
2023/01/08 13:12:49;;;;;;;3.90;0.40;;;11.50;14.60;;;;;;5014511;28;20440;-96
2023/01/08 13:15:25;;;;;;;2.03;0.50;;;11.50;1.00;;;;;;5015205;28;20467;-93
2023/01/08 13:17:53;;;;;;;0.50;0.20;;;11.60;1.00;;;;;;5015696;28;20471;-91
2023/01/08 13:20:25;;;;;;;1.27;0.23;;;11.80;1.00;;;;;;5017196;28;20429;-92
2023/01/08 13:22:53;;;;;;;1.10;0.30;;;11.70;1.00;;;;;;5008839;28;20422;-91
2023/01/08 13:25:21;;;;;;;1.20;0.40;;;11.60;1.00;;;;;;5016172;28;20412;-93